Latest Weather Observations for Tewantin

IDQ60901

Issued at 5:21 pm EST Friday 18 January 2019 (issued every 10 minutes, with the page automatically refreshed every 10 minutes)

About weather observations | Map of Brisbane area stations | Latest observations for Brisbane area | Other Formats
Station Details ID: 040908 Name: TEWANTIN RSL PARK Lat: -26.39 Lon: 153.04 Height: 6.4 m
Data from the previous 72 hours. | See also: Recent months at Tewantin
Date/Time
EST
Temp
°C
App
Temp
°C
Dew
Point
°C
Rel
Hum
%
Delta-T
°C
Wind Press
QNH
hPa
Press
MSL
hPa
Rain since
9am
mm
Dir  Spd
km/h
Gust
km/h
Spd
kts
Gust
kts
18/05:00pm 27.1 27.7 19.4 62 5.0 NNE 15 24 8 13 1014.7 1014.7 0.0
18/04:30pm 27.5 28.2 19.6 62 5.1 NE 15 24 8 13 1014.3 1014.3 0.0
18/04:00pm 28.1 29.5 20.4 63 5.1 NE 13 22 7 12 1014.3 1014.3 0.0
18/03:30pm 28.3 28.3 19.0 57 6.0 NE 17 26 9 14 1014.6 1014.6 0.0
18/03:00pm 28.1 28.3 19.3 58 5.7 NE 17 26 9 14 1014.7 1014.7 0.0
18/02:30pm 28.6 29.4 20.6 62 5.3 NE 17 30 9 16 1015.0 1015.0 0.0
18/02:00pm 28.6 29.0 19.8 59 5.7 NE 17 28 9 15 1015.2 1015.2 0.0
18/01:30pm 28.8 28.9 19.1 55 6.3 NE 17 24 9 13 1015.4 1015.4 0.0
18/01:00pm 28.4 27.8 18.5 55 6.3 NNE 19 30 10 16 1015.5 1015.5 0.0
18/12:30pm 28.6 28.9 19.5 58 5.9 NE 17 28 9 15 1015.7 1015.7 0.0
18/12:00pm 28.6 28.2 17.2 50 7.2 NE 15 22 8 12 1016.1 1016.1 0.0
18/11:30am 29.1 29.4 18.8 53 6.6 NNE 15 26 8 14 1016.5 1016.5 0.0
18/11:00am 28.4 28.6 18.5 55 6.3 NNE 15 26 8 14 1016.6 1016.6 0.0
18/10:30am 28.5 29.0 18.3 54 6.5 NNE 13 22 7 12 1016.8 1016.8 0.0
18/10:00am 28.8 28.8 17.3 49 7.2 NE 13 20 7 11 1016.9 1016.9 0.0
18/09:30am 28.5 29.5 19.4 57 5.9 NE 13 24 7 13 1017.0 1017.0 0.0
18/09:00am 27.4 28.8 19.5 62 5.1 NE 11 19 6 10 1017.0 1017.0 0.0
18/08:30am 27.1 28.2 18.1 58 5.7 ENE 9 15 5 8 1016.9 1016.9 0.0
18/08:00am 26.8 28.2 18.6 60 5.2 NE 9 15 5 8 1016.7 1016.7 0.0
18/07:30am 26.8 27.9 17.0 55 6.1 NE 7 11 4 6 1016.5 1016.5 0.0
18/07:00am 27.0 28.1 18.8 60 5.2 ENE 11 19 6 10 1016.4 1016.4 0.0
18/06:30am 24.9 27.5 19.3 71 3.6 SW 4 7 2 4 1016.0 1016.0 0.0
18/06:00am 22.8 25.2 19.6 82 2.0 SW 6 9 3 5 1015.6 1015.6 0.0
18/05:30am 22.1 25.0 19.1 83 1.9 SSW 2 7 1 4 1015.2 1015.2 0.0
18/05:00am 21.9 24.8 18.3 80 2.2 CALM 0 0 0 0 1014.7 1014.7 0.0
18/04:30am 22.1 24.8 18.7 81 2.1 SSW 2 7 1 4 1014.1 1014.1 0.0
18/04:00am 21.8 24.4 19.2 85 1.6 SSW 4 7 2 4 1013.9 1013.9 0.0
18/03:30am 21.2 24.1 18.2 83 1.9 CALM 0 0 0 0 1013.6 1013.6 0.0
18/03:00am 20.9 23.5 18.3 85 1.6 SW 2 6 1 3 1013.5 1013.5 0.0
18/02:30am 20.9 23.8 18.1 84 1.7 CALM 0 0 0 0 1013.6 1013.6 0.0
18/02:00am 21.2 24.1 18.2 83 1.9 CALM 0 6 0 3 1013.7 1013.7 0.0
18/01:30am 21.3 22.8 18.1 82 2.0 SW 7 9 4 5 1014.0 1014.0 0.0
18/01:00am 21.7 23.2 17.5 77 2.6 WSW 6 7 3 4 1014.1 1014.1 0.0
18/12:30am 22.7 25.2 17.2 71 3.4 CALM 0 7 0 4 1014.4 1014.4 0.0
18/12:00am 23.8 25.3 18.0 70 3.6 NNE 7 9 4 5 1014.5 1014.5 0.0
 
Date/Time
EST
Temp
°C
App
Temp
°C
Dew
Point
°C
Rel
Hum
%
Delta-T
°C
Wind Press
QNH
hPa
Press
MSL
hPa
Rain since
9am
mm
Dir  Spd
km/h
Gust
km/h
Spd
kts
Gust
kts
17/11:30pm 24.0 25.8 18.2 70 3.6 NNE 6 9 3 5 1015.0 1015.0 0.0
17/11:00pm 24.1 25.0 17.6 67 4.0 NE 9 13 5 7 1015.1 1015.1 0.0
17/10:30pm 24.3 25.6 17.5 66 4.2 ENE 7 11 4 6 1015.3 1015.3 0.0
17/10:00pm 24.8 25.9 18.0 66 4.3 ENE 9 15 5 8 1015.4 1015.4 0.0
17/09:30pm 24.6 26.3 18.5 69 3.9 ENE 7 17 4 9 1015.1 1015.1 0.0
17/09:00pm 24.3 25.8 18.0 68 3.9 ENE 7 11 4 6 1015.0 1015.0 0.0
17/08:30pm 24.1 25.7 18.3 70 3.7 NE 7 11 4 6 1014.6 1014.6 0.0
17/08:00pm 24.4 25.9 18.1 68 4.0 ENE 7 11 4 6 1014.3 1014.3 0.0
17/07:30pm 24.5 25.8 17.5 65 4.4 ENE 7 11 4 6 1014.2 1014.2 0.0
17/07:00pm 24.9 26.1 17.4 63 4.7 NE 7 13 4 7 1014.0 1014.0 0.0
17/06:30pm 25.5 26.3 17.2 60 5.2 ENE 9 15 5 8 1013.8 1013.8 0.0
17/06:00pm 26.2 26.8 17.6 59 5.4 NE 11 19 6 10 1013.7 1013.7 0.0
17/05:30pm 26.6 26.4 16.8 55 6.1 ENE 13 19 7 10 1013.4 1013.4 0.0
17/05:00pm 27.1 27.6 18.4 59 5.5 ENE 13 20 7 11 1013.4 1013.4 0.0
17/04:30pm 27.4 27.7 17.8 55 6.1 NE 13 24 7 13 1013.1 1013.1 0.0
17/04:00pm 27.3 26.4 16.9 53 6.5 ENE 17 26 9 14 1013.2 1013.2 0.0
17/03:30pm 28.0 27.8 17.5 52 6.6 NE 15 26 8 14 1013.2 1013.2 0.0
17/03:00pm 28.2 28.3 17.4 52 6.8 NE 13 22 7 12 1013.3 1013.3 0.0
17/02:30pm 29.0 28.8 17.5 49 7.3 ENE 15 28 8 15 1013.5 1013.5 0.0
17/02:00pm 28.8 28.5 17.3 49 7.2 NE 15 24 8 13 1013.7 1013.7 0.0
17/01:30pm 28.5 28.5 18.9 56 6.2 NE 17 26 9 14 1014.0 1014.0 0.0
17/01:00pm 28.5 27.5 16.7 48 7.4 NE 17 28 9 15 1014.2 1014.2 0.0
17/12:30pm 28.7 28.7 18.2 53 6.7 ENE 15 24 8 13 1014.5 1014.5 0.0
17/12:00pm 28.7 28.9 18.5 54 6.5 NE 15 22 8 12 1014.9 1014.9 0.0
17/11:30am 28.8 28.5 18.3 53 6.7 ENE 17 26 9 14 1015.1 1015.1 0.0
17/11:00am 29.2 29.5 19.5 56 6.3 ENE 17 24 9 13 1015.2 1015.2 0.0
17/10:30am 28.3 29.2 19.2 57 5.9 NE 13 22 7 12 1015.4 1015.4 0.0
17/10:00am 28.0 29.0 19.5 60 5.5 NE 13 20 7 11 1015.6 1015.6 0.0
17/09:30am 28.3 29.5 19.8 60 5.5 ENE 13 24 7 13 1015.7 1015.7 0.0
17/09:00am 27.9 28.0 19.1 58 5.7 ENE 17 24 9 13 1015.6 1015.6 0.0
17/08:30am 28.3 30.1 20.3 62 5.3 NE 11 20 6 11 1015.6 1015.6 0.0
17/08:00am 27.4 30.8 21.0 68 4.2 SSE 4 7 2 4 1015.4 1015.4 0.0
17/07:30am 25.3 29.1 20.1 73 3.4 CALM 0 0 0 0 1015.4 1015.4 0.0
17/07:00am 26.4 30.4 20.5 70 3.9 CALM 0 0 0 0 1015.2 1015.2 0.0
17/06:30am 25.3 29.1 21.0 77 2.8 SW 2 7 1 4 1014.8 1014.8 0.0
17/06:00am 24.1 28.4 21.2 84 1.9 CALM 0 0 0 0 1014.4 1014.4 0.0
17/05:30am 23.0 27.6 21.8 93 0.8 CALM 0 7 0 4 1013.9 1013.9 0.0
17/05:00am 22.6 25.8 21.2 92 0.9 SW 6 7 3 4 1013.4 1013.4 0.0
17/04:30am 22.7 26.0 21.5 93 0.8 SW 6 7 3 4 1013.2 1013.2 0.0
17/04:00am 22.2 25.2 20.8 92 0.9 SSW 6 9 3 5 1013.0 1013.0 0.0
17/03:30am 22.6 26.9 21.1 91 1.0 CALM 0 0 0 0 1012.7 1012.7 0.0
17/03:00am 22.8 27.2 21.3 91 1.0 CALM 0 0 0 0 1012.7 1012.7 0.0
17/02:30am 22.7 26.8 20.8 89 1.2 CALM 0 0 0 0 1012.9 1012.9 0.0
17/02:00am 23.2 27.3 20.7 86 1.6 CALM 0 0 0 0 1013.0 1013.0 0.0
17/01:30am 23.6 27.7 20.7 84 1.9 CALM 0 0 0 0 1013.3 1013.3 0.0
17/01:00am 24.2 28.2 20.5 80 2.4 CALM 0 6 0 3 1013.5 1013.5 0.0
17/12:30am 24.6 28.0 20.9 80 2.4 N 4 9 2 5 1013.9 1013.9 0.0
17/12:00am 24.9 27.5 21.2 80 2.4 NNE 9 13 5 7 1014.2 1014.2 0.0
 
Date/Time
EST
Temp
°C
App
Temp
°C
Dew
Point
°C
Rel
Hum
%
Delta-T
°C
Wind Press
QNH
hPa
Press
MSL
hPa
Rain since
9am
mm
Dir  Spd
km/h
Gust
km/h
Spd
kts
Gust
kts
16/11:30pm 25.0 27.9 21.7 82 2.2 NNE 9 13 5 7 1014.2 1014.2 0.0
16/11:00pm 25.2 27.8 21.9 82 2.2 NNE 11 17 6 9 1014.3 1014.3 0.0
16/10:30pm 25.0 27.3 21.3 80 2.4 NNE 11 15 6 8 1014.4 1014.4 0.0
16/10:00pm 25.4 28.0 21.9 81 2.3 NE 11 20 6 11 1014.2 1014.2 0.0
16/09:30pm 25.7 28.4 22.2 81 2.3 NNE 11 19 6 10 1014.1 1014.1 0.0
16/09:00pm 25.6 28.4 22.3 82 2.2 NNE 11 19 6 10 1013.9 1013.9 0.0
16/08:30pm 25.4 27.2 21.9 81 2.3 NNE 15 22 8 12 1013.3 1013.3 0.0
16/08:00pm 25.6 27.9 22.7 84 2.0 NNE 15 22 8 12 1013.2 1013.2 0.0
16/07:30pm 25.5 28.0 22.4 83 2.1 NNE 13 22 7 12 1013.0 1013.0 0.0
16/07:00pm 25.4 28.6 22.3 83 2.1 NE 9 17 5 9 1012.7 1012.7 0.0
16/06:30pm 25.7 27.9 21.8 79 2.6 NE 13 26 7 14 1012.4 1012.4 0.0
16/06:00pm 26.0 27.9 21.4 76 3.1 NE 13 22 7 12 1012.2 1012.2 0.0
16/05:30pm 26.0 27.3 20.8 73 3.4 NE 15 24 8 13 1011.9 1011.9 0.0
16/05:00pm 26.7 28.1 21.9 75 3.2 NE 17 28 9 15 1011.6 1011.6 0.0
16/04:30pm 27.0 28.5 21.3 71 3.8 ENE 15 26 8 14 1011.6 1011.6 0.0
16/04:00pm 27.4 28.4 21.7 71 3.8 ENE 19 28 10 15 1011.7 1011.7 0.0
16/03:30pm 28.1 29.2 22.3 70 3.9 ENE 20 30 11 16 1011.8 1011.8 0.0
16/03:00pm 28.5 30.4 21.3 65 4.8 NE 13 22 7 12 1011.9 1011.9 0.0
16/02:30pm 28.3 28.5 20.1 61 5.4 NE 19 28 10 15 1012.2 1012.2 0.0
16/02:00pm 29.3 30.3 21.0 61 5.5 NE 17 22 9 12 1012.4 1012.4 0.0
16/01:30pm 29.3 30.1 20.7 59 5.7 NE 17 28 9 15 1012.8 1012.8 0.0
16/01:00pm 29.4 30.3 20.8 60 5.7 NE 17 26 9 14 1012.9 1012.9 0.0
16/12:30pm 29.6 31.2 20.7 58 5.9 NE 13 24 7 13 1013.1 1013.1 0.0
16/12:00pm 30.0 32.2 21.1 59 5.9 NE 11 20 6 11 1013.5 1013.5 0.0
16/11:30am 28.8 29.2 19.1 55 6.3 ENE 15 22 8 12 1013.8 1013.8 0.0
16/11:00am 29.0 30.3 20.2 59 5.8 NE 13 19 7 10 1014.1 1014.1 0.0
16/10:30am 29.2 31.4 20.4 59 5.8 NNE 9 19 5 10 1014.3 1014.3 0.0
16/10:00am 28.3 30.0 18.4 55 6.3 NNE 7 13 4 7 1014.4 1014.4 0.0
16/09:30am 29.1 31.2 19.4 55 6.3 NE 7 11 4 6 1014.5 1014.5 0.0
16/09:00am 27.9 29.8 18.9 58 5.8 NNW 7 15 4 8 1014.7 1014.7 0.0
16/08:30am 27.5 29.7 19.3 61 5.3 ENE 6 9 3 5 1014.7 1014.7 0.0
16/08:00am 27.2 30.0 18.8 60 5.4 ENE 2 6 1 3 1014.7 1014.7 0.0
16/07:30am 26.4 28.7 19.5 66 4.5 SSW 6 7 3 4 1014.7 1014.7 0.0
16/07:00am 25.3 28.6 19.2 69 3.9 CALM 0 0 0 0 1014.4 1014.4 0.0
16/06:30am 23.8 27.3 19.5 77 2.8 CALM 0 0 0 0 1014.3 1014.3 0.0
16/06:00am 21.9 25.6 20.0 89 1.2 CALM 0 0 0 0 1014.0 1014.0 0.0
16/05:30am 20.8 24.4 19.8 94 0.6 CALM 0 0 0 0 1013.8 1013.8 0.0
16/05:00am 21.1 23.7 20.1 94 0.6 SW 6 9 3 5 1013.4 1013.4 0.0
16/04:30am 21.2 24.3 20.2 94 0.6 SW 4 9 2 5 1013.2 1013.2 0.0
16/04:00am 21.5 25.1 20.5 94 0.6 SSW 2 7 1 4 1013.0 1013.0 0.0
16/03:30am 21.7 24.4 20.3 92 0.9 SSW 6 7 3 4 1012.9 1012.9 0.0
16/03:00am 22.2 25.1 20.7 91 1.0 SSW 6 6 3 3 1012.9 1012.9 0.0
16/02:30am 22.6 26.4 20.9 90 1.1 SSW 2 6 1 3 1013.1 1013.1 0.0
16/02:00am 22.8 26.8 20.5 87 1.5 CALM 0 2 0 1 1013.2 1013.2 0.0
16/01:30am 22.7 26.5 20.2 86 1.6 CALM 0 0 0 0 1013.5 1013.5 0.0
16/01:00am 23.1 27.0 20.4 85 1.7 CALM 0 6 0 3 1013.8 1013.8 0.0
16/12:30am 23.7 26.3 20.0 80 2.4 ENE 6 7 3 4 1014.1 1014.1 0.0
16/12:00am 24.1 26.8 20.2 79 2.5 ENE 6 9 3 5 1014.4 1014.4 0.0
 
Date/Time
EST
Temp
°C
App
Temp
°C
Dew
Point
°C
Rel
Hum
%
Delta-T
°C
Wind Press
QNH
hPa
Press
MSL
hPa
Rain since
9am
mm
Dir  Spd
km/h
Gust
km/h
Spd
kts
Gust
kts
15/11:30pm 24.2 26.9 20.3 79 2.5 ENE 6 9 3 5 1014.5 1014.5 0.0
15/11:00pm 24.3 27.2 20.6 80 2.4 NE 6 7 3 4 1014.8 1014.8 0.0
15/10:30pm 24.4 26.9 20.3 78 2.7 NE 7 11 4 6 1014.8 1014.8 0.0
15/10:00pm 24.4 26.9 20.3 78 2.7 NE 7 11 4 6 1014.9 1014.9 0.0
15/09:30pm 24.8 27.1 20.7 78 2.7 NE 9 13 5 7 1014.9 1014.9 0.0
15/09:00pm 24.6 27.4 20.5 78 2.7 ENE 6 11 3 6 1014.9 1014.9 0.0
15/08:30pm 24.7 27.6 21.0 80 2.4 NE 7 13 4 7 1014.7 1014.7 0.0
15/08:00pm 24.6 27.5 20.7 79 2.5 NE 6 7 3 4 1014.3 1014.3 0.0
15/07:30pm 24.8 27.5 20.7 78 2.7 NE 7 11 4 6 1014.2 1014.2 0.0
15/07:00pm 25.0 27.2 20.3 75 3.1 NE 9 13 5 7 1014.0 1014.0 0.0
15/06:30pm 25.4 27.3 19.8 71 3.6 NE 9 17 5 9 1013.8 1013.8 0.0
15/06:00pm 26.0 27.2 19.9 69 4.0 NE 13 19 7 10 1013.8 1013.8 0.0
15/05:30pm 26.4 28.3 20.5 70 3.9 NE 11 17 6 9 1013.7 1013.7 0.0

Latest Capital City Observations: Canberra | Sydney | Melbourne | Brisbane | Adelaide | Perth | Hobart | Darwin

Other Formats:

Comma delimited format used in spreadsheet applications
http://www.bom.gov.au/fwo/IDQ60901/IDQ60901.94570.axf

JavaScript Object Notation format (JSON) in row-major order
http://www.bom.gov.au/fwo/IDQ60901/IDQ60901.94570.json